Time;durP1;ratioP1;P1;durP2;ratioP2;P2;SDS_P1;SDS_P2;PMS_P1;PMS_P2;Temp;Humidity;BMP_temperature;BMP_pressure;BME280_temperature;BME280_humidity;BME280_pressure;Samples;Min_cycle;Max_cycle;Signal;HPM_P1;HPM_P2
2021/10/25 00:01:06;;;;;;;;;36.60;32.00;;;;;8.96;47.45;100037.41;7659333;22;96585;-62
2021/10/25 00:04:11;;;;;;;;;39.00;32.60;;;;;8.97;47.58;100052.53;7659063;22;97048;-62
2021/10/25 00:07:14;;;;;;;;;39.60;32.00;;;;;8.95;47.02;100043.81;7659518;22;97449;-62
2021/10/25 00:10:18;;;;;;;;;38.00;33.00;;;;;8.93;46.67;100041.31;7659645;22;98014;-62
2021/10/25 00:13:21;;;;;;;;;34.80;31.40;;;;;8.91;46.56;100046.03;7655662;22;97799;-63
2021/10/25 00:16:25;;;;;;;;;36.00;32.00;;;;;8.85;46.53;100041.38;7659362;22;96519;-63
2021/10/25 00:19:30;;;;;;;;;38.00;32.00;;;;;8.72;46.46;100043.03;7655283;22;97076;-63
2021/10/25 00:22:34;;;;;;;;;34.60;31.00;;;;;8.62;46.65;100036.06;7656755;22;96680;-64
2021/10/25 00:25:37;;;;;;;;;36.00;32.00;;;;;8.62;46.86;100040.59;7659723;22;96590;-63
2021/10/25 00:28:40;;;;;;;;;37.50;31.75;;;;;8.64;46.80;100041.25;7659501;22;96645;-64
2021/10/25 00:31:46;;;;;;;;;34.40;30.00;;;;;8.66;46.93;100033.81;7632766;22;97024;-64
2021/10/25 00:34:51;;;;;;;;;39.25;32.25;;;;;8.69;47.01;100031.63;7654657;22;97202;-63
2021/10/25 00:37:54;;;;;;;;;40.60;33.00;;;;;8.70;46.75;100035.97;7658510;22;96911;-63
2021/10/25 00:40:58;;;;;;;;;35.25;30.00;;;;;8.60;46.58;100027.31;7658993;22;96456;-63
2021/10/25 00:44:01;;;;;;;;;38.00;31.00;;;;;8.55;46.88;100016.28;7632622;22;97304;-64
2021/10/25 00:47:04;;;;;;;;;33.40;30.40;;;;;8.52;46.98;100016.66;7659499;22;97470;-63
2021/10/25 00:50:10;;;;;;;;;40.40;32.00;;;;;8.48;47.26;100015.34;7655737;22;97003;-63
2021/10/25 00:53:13;;;;;;;;;35.80;32.00;;;;;8.47;47.94;100013.66;7655594;22;96484;-63
2021/10/25 00:56:17;;;;;;;;;30.00;28.00;;;;;8.45;47.79;100010.34;7659421;22;96457;-63
2021/10/25 00:59:20;;;;;;;;;34.60;29.00;;;;;8.41;47.75;100010.84;7632008;22;96922;-63
2021/10/25 01:02:24;;;;;;;;;27.60;25.40;;;;;8.35;47.52;100009.75;7660343;22;97415;-63
2021/10/25 01:05:30;;;;;;;;;32.60;29.20;;;;;8.31;46.92;100008.41;7656723;22;97470;-64
2021/10/25 01:08:37;;;;;;;;;32.00;29.00;;;;;8.32;47.23;100006.56;7656938;22;96471;-62
2021/10/25 01:11:41;;;;;;;;;31.80;29.00;;;;;8.17;47.31;99977.78;7654034;22;96431;-63
2021/10/25 01:14:44;;;;;;;;;31.50;29.00;;;;;8.25;46.88;99999.22;7659878;22;97106;-63
2021/10/25 01:17:54;;;;;;;;;32.60;30.00;;;;;8.22;52.24;99996.03;7631799;22;97785;-63
2021/10/25 01:20:59;;;;;;;;;33.40;29.40;;;;;8.21;50.99;100000.56;7607357;22;96678;-63
2021/10/25 01:24:02;;;;;;;;;29.00;27.00;;;;;8.22;49.15;99993.34;7606014;22;98901;-62
2021/10/25 01:27:06;;;;;;;;;31.80;28.40;;;;;8.22;48.16;99985.28;7657827;22;97118;-62
2021/10/25 01:30:10;;;;;;;;;30.80;27.00;;;;;8.23;47.86;99986.97;7661893;22;96709;-62
2021/10/25 01:33:15;;;;;;;;;29.60;27.60;;;;;8.15;47.63;99977.13;7607417;22;99414;-62
2021/10/25 01:36:22;;;;;;;;;31.00;29.00;;;;;8.20;47.24;99982.81;7633638;22;96604;-62
2021/10/25 01:39:26;;;;;;;;;30.60;28.00;;;;;8.14;47.68;99977.31;7634291;22;96458;-63
2021/10/25 01:42:30;;;;;;;;;27.60;26.00;;;;;8.14;47.61;99983.50;7633753;22;97702;-63
2021/10/25 01:45:36;;;;;;;;;25.00;24.80;;;;;8.14;47.63;99978.13;7634568;22;96489;-62
2021/10/25 01:48:40;;;;;;;;;31.00;28.00;;;;;7.94;47.83;99939.34;7634189;22;96597;-62
2021/10/25 01:51:45;;;;;;;;;29.00;26.00;;;;;8.07;47.16;99979.00;7660453;22;96386;-63
2021/10/25 01:54:48;;;;;;;;;28.60;26.00;;;;;8.04;47.45;99984.75;7634051;22;96547;-62
2021/10/25 01:57:51;;;;;;;;;28.50;25.00;;;;;8.03;47.75;99964.28;7634191;22;97359;-62
2021/10/25 02:00:55;;;;;;;;;30.75;27.25;;;;;8.01;47.59;99969.00;7633609;22;97614;-63
2021/10/25 02:03:59;;;;;;;;;29.00;25.00;;;;;8.01;47.51;99964.47;7632507;22;97279;-63
2021/10/25 02:07:05;;;;;;;;;31.60;26.80;;;;;7.99;47.84;99966.50;7632500;22;97849;-63
2021/10/25 02:10:09;;;;;;;;;30.00;25.50;;;;;8.00;47.58;99959.28;7658975;22;97260;-62
2021/10/25 02:13:16;;;;;;;;;30.50;27.00;;;;;8.02;47.27;99958.06;7633682;22;97811;-62
2021/10/25 02:16:20;;;;;;;;;24.80;23.80;;;;;8.01;47.11;99952.91;7658890;22;96982;-62
2021/10/25 02:19:23;;;;;;;;;30.00;27.00;;;;;7.99;46.85;99945.00;7633138;22;97551;-64
2021/10/25 02:22:42;;;;;;;;;27.00;25.00;;;;;7.94;47.43;99943.88;7608687;22;97133;-62
2021/10/25 02:25:48;;;;;;;;;28.25;26.00;;;;;7.92;47.09;99943.22;7635873;22;96456;-63
2021/10/25 02:28:55;;;;;;;;;31.75;27.00;;;;;7.88;47.07;99948.09;7633428;22;97270;-62
2021/10/25 02:31:59;;;;;;;;;27.75;26.00;;;;;7.90;47.16;99942.56;7660952;22;97261;-63
2021/10/25 02:35:02;;;;;;;;;33.00;28.00;;;;;7.90;46.81;99942.56;7608552;22;96811;-62
2021/10/25 02:38:18;;;;;;;;;28.00;24.00;;;;;7.87;47.09;99951.00;7634386;22;97126;-64
2021/10/25 02:41:29;;;;;;;;;30.60;26.00;;;;;7.86;47.72;99939.41;7633201;22;96479;-63
2021/10/25 02:44:32;;;;;;;;;27.00;25.20;;;;;7.87;46.99;99946.44;7608860;22;98638;-63
2021/10/25 02:47:36;;;;;;;;;27.50;25.50;;;;;7.85;47.10;99937.72;7660773;22;96925;-63
2021/10/25 02:50:43;;;;;;;;;29.00;27.80;;;;;7.81;47.39;99937.25;7634764;22;97409;-63
2021/10/25 02:53:49;;;;;;;;;29.75;27.75;;;;;7.87;47.32;99934.88;7660942;22;96430;-63
2021/10/25 02:56:54;;;;;;;;;25.00;25.00;;;;;7.87;47.03;99930.31;7632830;22;96475;-62
2021/10/25 03:00:04;;;;;;;;;26.00;24.50;;;;;7.87;46.75;99937.56;7634002;22;96401;-63
2021/10/25 03:03:12;;;;;;;;;26.60;24.60;;;;;7.85;46.71;99935.06;7632557;22;96418;-63
2021/10/25 03:06:15;;;;;;;;;31.25;30.00;;;;;7.85;47.43;99940.41;7620372;22;97523;-63
2021/10/25 03:09:21;;;;;;;;;30.00;27.00;;;;;7.82;47.93;99941.59;7596156;22;96811;-63
2021/10/25 03:12:26;;;;;;;;;30.80;28.20;;;;;7.83;47.23;99937.06;7597509;22;96385;-62
2021/10/25 03:15:34;;;;;;;;;33.20;28.40;;;;;7.81;47.24;99944.47;7621621;22;97296;-63
2021/10/25 03:47:18;;;;;;;;;35.00;31.00;;;;;7.90;47.80;99921.09;7562341;22;97954;-64
2021/10/25 03:50:23;;;;;;;;;45.00;38.00;;;;;7.91;48.70;99915.53;7709036;22;97389;-64
2021/10/25 03:54:00;;;;;;;;;40.40;34.00;;;;;7.89;49.27;99905.97;7702565;22;98752;-63
2021/10/25 03:57:30;;;;;;;;;44.00;34.50;;;;;7.91;49.90;99909.34;7719297;22;97405;-63
2021/10/25 04:01:07;;;;;;;;;45.60;37.60;;;;;7.90;49.89;99905.81;7696360;22;96342;-64
2021/10/25 04:28:05;;;;;;;;;44.00;35.00;;;;;7.90;48.63;99872.75;7670426;22;96821;-63
2021/10/25 04:31:09;;;;;;;;;41.60;35.00;;;;;7.90;48.12;99859.34;7673136;22;96869;-63
2021/10/25 04:34:31;;;;;;;;;41.00;33.50;;;;;7.87;48.02;99855.16;7697397;22;97446;-64
2021/10/25 04:38:02;;;;;;;;;40.80;34.80;;;;;7.77;48.69;99868.00;7669092;22;99357;-64
2021/10/25 04:41:06;;;;;;;;;43.60;35.00;;;;;7.70;48.87;99861.66;7671117;22;97425;-64
2021/10/25 04:44:11;;;;;;;;;38.25;34.75;;;;;7.72;48.70;99862.34;7670213;22;96840;-64
2021/10/25 04:47:14;;;;;;;;;39.75;35.00;;;;;7.69;48.63;99860.84;7695228;22;96458;-65
2021/10/25 04:50:22;;;;;;;;;42.60;33.60;;;;;7.69;48.60;99860.00;7669117;22;96447;-65
2021/10/25 04:53:42;;;;;;;;;42.00;35.00;;;;;7.64;49.38;99849.81;7695432;22;96730;-64
2021/10/25 04:56:47;;;;;;;;;42.00;34.75;;;;;7.65;49.06;99845.28;7671049;22;97596;-63
2021/10/25 04:59:50;;;;;;;;;44.80;36.00;;;;;7.65;49.38;99850.63;7697964;22;98056;-64
2021/10/25 05:02:54;;;;;;;;;41.40;35.00;;;;;7.61;49.43;99844.81;7669910;22;97421;-63
2021/10/25 05:05:58;;;;;;;;;41.80;33.20;;;;;7.60;49.57;99847.66;7645851;22;99412;-64
2021/10/25 05:09:03;;;;;;;;;43.75;35.00;;;;;7.61;49.14;99844.81;7643288;22;99968;-64
2021/10/25 05:12:13;;;;;;;;;43.60;35.80;;;;;7.62;49.12;99841.13;7670894;22;97389;-64
2021/10/25 05:15:16;;;;;;;;;41.00;35.00;;;;;7.67;49.32;99849.44;7669880;22;97089;-63
2021/10/25 05:18:19;;;;;;;;;43.80;35.00;;;;;7.66;49.14;99845.09;7695504;22;97109;-64
2021/10/25 05:21:23;;;;;;;;;40.00;34.00;;;;;7.68;49.23;99850.25;7669791;22;97334;-64
2021/10/25 05:24:28;;;;;;;;;41.40;33.00;;;;;7.70;49.08;99846.41;7669264;22;96525;-63
2021/10/25 05:27:31;;;;;;;;;43.20;35.00;;;;;7.72;49.00;99847.03;7643839;22;97536;-64
2021/10/25 05:30:35;;;;;;;;;38.40;32.40;;;;;7.75;49.35;99848.53;7694678;22;97167;-64
2021/10/25 05:33:40;;;;;;;;;40.00;33.25;;;;;7.80;49.19;99846.16;7643402;22;97557;-64
2021/10/25 05:36:43;;;;;;;;;41.00;34.67;;;;;7.84;49.47;99845.63;7694651;22;97687;-64
2021/10/25 05:39:47;;;;;;;;;41.00;33.00;;;;;7.93;49.48;99843.69;7669684;22;96491;-64
2021/10/25 05:42:53;;;;;;;;;44.00;34.80;;;;;8.01;49.24;99840.09;7671569;22;97103;-64
2021/10/25 05:45:58;;;;;;;;;42.40;35.00;;;;;8.09;49.14;99842.72;7696785;22;96966;-64
2021/10/25 05:49:02;;;;;;;;;43.00;34.60;;;;;8.24;48.99;99840.88;7671557;22;97158;-65
2021/10/25 05:52:05;;;;;;;;;42.00;35.00;;;;;8.36;48.63;99839.44;7671940;22;96346;-64
2021/10/25 05:55:10;;;;;;;;;43.75;34.50;;;;;8.58;48.23;99835.84;7673533;22;96460;-63
2021/10/25 05:58:19;;;;;;;;;40.00;34.00;;;;;9.03;48.87;99833.94;7670412;22;96410;-64
2021/10/25 06:01:27;;;;;;;;;39.00;33.00;;;;;9.61;46.83;99832.06;7671423;22;97210;-63
2021/10/25 06:04:34;;;;;;;;;42.00;33.00;;;;;10.13;45.22;99840.59;7671327;22;97335;-64
2021/10/25 06:08:08;;;;;;;;;40.00;33.00;;;;;10.85;43.61;99833.00;7681032;22;98101;-64
2021/10/25 06:11:16;;;;;;;;;37.00;32.00;;;;;11.80;41.69;99833.91;7645070;22;99947;-64
2021/10/25 06:14:27;;;;;;;;;37.50;32.00;;;;;13.33;38.87;99837.78;7671881;22;96590;-64
2021/10/25 06:17:50;;;;;;;;;36.80;32.00;;;;;15.35;35.29;99837.19;7671690;22;97008;-64
2021/10/25 06:20:53;;;;;;;;;36.67;32.67;;;;;17.32;31.95;99848.25;7644494;22;96942;-64
2021/10/25 06:23:59;;;;;;;;;37.00;33.00;;;;;18.92;29.44;99835.97;7696174;22;97988;-65
2021/10/25 06:27:16;;;;;;;;;37.80;32.00;;;;;20.41;27.23;99847.16;7670999;22;97309;-64
2021/10/25 06:30:21;;;;;;;;;35.00;32.00;;;;;21.37;25.68;99850.47;7671064;22;97461;-64
2021/10/25 06:33:29;;;;;;;;;35.00;31.60;;;;;22.40;24.49;99842.13;7696610;22;96941;-63
2021/10/25 06:36:59;;;;;;;;;36.00;31.80;;;;;23.20;23.10;99824.66;7664495;22;99804;-65
2021/10/25 06:40:28;;;;;;;;;38.00;33.00;;;;;24.23;22.01;99837.56;7694688;22;98437;-65
2021/10/25 06:43:37;;;;;;;;;35.20;31.60;;;;;24.76;21.44;99823.81;7669516;22;97863;-63
2021/10/25 06:46:48;;;;;;;;;36.40;32.40;;;;;25.49;20.64;99837.31;7643696;22;98401;-64
2021/10/25 06:49:56;;;;;;;;;39.00;34.00;;;;;26.14;20.18;99839.13;7670190;22;96797;-64
2021/10/25 06:53:05;;;;;;;;;39.00;33.00;;;;;26.62;19.64;99844.44;7694878;22;97350;-63
2021/10/25 06:56:28;;;;;;;;;43.00;34.00;;;;;27.14;18.64;99849.53;7669144;22;97236;-65
2021/10/25 06:59:32;;;;;;;;;43.00;34.50;;;;;27.70;18.30;99853.09;7668607;22;98128;-64
2021/10/25 07:02:37;;;;;;;;;38.40;32.40;;;;;28.14;17.89;99849.59;7668806;22;97566;-65
2021/10/25 07:05:45;;;;;;;;;41.75;33.50;;;;;28.52;17.45;99850.03;7670823;22;97010;-64
2021/10/25 07:08:52;;;;;;;;;37.00;33.00;;;;;28.86;17.07;99850.25;7669208;22;98629;-65
2021/10/25 07:11:56;;;;;;;;;41.50;34.00;;;;;29.28;16.67;99846.00;7670347;22;97346;-64
2021/10/25 07:15:01;;;;;;;;;40.00;34.00;;;;;29.57;16.80;99842.66;7697167;22;97613;-64
2021/10/25 07:18:11;;;;;;;;;43.80;35.00;;;;;29.78;16.81;99846.44;7695716;22;97352;-64
2021/10/25 08:03:01;;;;;;;;;40.40;35.00;;;;;33.28;13.99;99798.41;7670071;22;96749;-64
2021/10/25 08:06:17;;;;;;;;;41.00;34.60;;;;;33.58;13.63;99809.31;7672028;22;97032;-64
2021/10/25 08:09:29;;;;;;;;;39.00;32.50;;;;;33.99;13.44;99814.59;7673630;22;97259;-64
2021/10/25 08:12:44;;;;;;;;;42.20;35.00;;;;;34.14;12.81;99808.25;7672256;22;96401;-64
2021/10/25 08:15:48;;;;;;;;;41.50;33.50;;;;;34.19;13.09;99798.81;7645657;22;97662;-64
2021/10/25 08:19:09;;;;;;;;;38.60;33.00;;;;;34.28;13.26;99802.25;7671383;22;96564;-64
2021/10/25 08:22:15;;;;;;;;;38.80;33.00;;;;;34.41;13.03;99792.59;7699217;22;97237;-65
2021/10/25 08:25:21;;;;;;;;;36.80;31.40;;;;;34.62;13.10;99790.38;7645522;22;100090;-64
2021/10/25 08:28:30;;;;;;;;;39.50;33.50;;;;;34.70;12.58;99792.22;7697491;22;97414;-65
2021/10/25 08:31:37;;;;;;;;;40.40;34.00;;;;;34.75;12.99;99791.94;7645005;22;97723;-64
2021/10/25 08:35:06;;;;;;;;;42.80;34.40;;;;;34.89;12.94;99794.31;7671051;22;97326;-64
2021/10/25 08:42:01;;;;;;;;;38.60;33.00;;;;;35.26;12.73;99782.81;7613912;22;97362;-64
2021/10/25 08:45:12;;;;;;;;;40.40;33.00;;;;;35.54;12.57;99780.66;7696811;22;97292;-65
2021/10/25 08:48:17;;;;;;;;;40.00;33.00;;;;;35.80;12.52;99782.88;7671350;22;97051;-65
2021/10/25 08:51:22;;;;;;;;;37.50;32.00;;;;;35.81;12.46;99762.88;7670746;22;96539;-65
2021/10/25 08:54:26;;;;;;;;;36.00;32.00;;;;;36.13;12.23;99768.28;7698535;22;97071;-64
2021/10/25 08:57:32;;;;;;;;;37.20;32.00;;;;;36.26;12.19;99773.44;7697078;22;96503;-65
2021/10/25 09:00:38;;;;;;;;;34.40;32.00;;;;;36.31;11.85;99767.47;7670530;22;96414;-65
2021/10/25 09:04:08;;;;;;;;;35.20;30.20;;;;;36.27;11.72;99768.59;7696977;22;96882;-65
2021/10/25 09:07:14;;;;;;;;;35.00;30.00;;;;;36.27;12.19;99762.97;7671722;22;98078;-64
2021/10/25 09:10:30;;;;;;;;;33.00;29.00;;;;;36.14;11.94;99764.34;7697179;22;97922;-64
2021/10/25 09:13:34;;;;;;;;;35.40;31.40;;;;;36.03;12.10;99764.09;7697908;22;97085;-64
2021/10/25 09:16:44;;;;;;;;;34.80;31.20;;;;;35.88;12.24;99759.38;7645873;22;96621;-65
2021/10/25 09:20:08;;;;;;;;;33.20;30.60;;;;;36.12;11.84;99752.66;7697899;22;97408;-64
2021/10/25 09:23:15;;;;;;;;;36.00;31.00;;;;;36.13;12.40;99752.28;7671044;22;96484;-65
2021/10/25 09:26:22;;;;;;;;;36.60;32.00;;;;;36.19;11.94;99759.25;7671451;22;97276;-65
2021/10/25 09:29:30;;;;;;;;;32.00;30.00;;;;;36.06;12.19;99746.53;7672264;22;96863;-65
2021/10/25 09:32:34;;;;;;;;;30.00;29.50;;;;;36.19;12.30;99733.16;7670858;22;96702;-65
2021/10/25 09:36:01;;;;;;;;;27.60;26.60;;;;;36.15;11.73;99746.31;7671522;22;98397;-65
2021/10/25 09:39:19;;;;;;;;;29.00;27.00;;;;;36.15;11.63;99737.91;7693769;22;96554;-65
2021/10/25 09:42:57;;;;;;;;;32.00;30.00;;;;;36.22;11.74;99726.78;7668256;22;96527;-65
2021/10/25 09:46:12;;;;;;;;;29.75;26.75;;;;;36.29;11.88;99738.16;7694786;22;96537;-65
2021/10/25 09:49:38;;;;;;;;;28.40;25.60;;;;;36.22;11.69;99735.19;7697912;22;97393;-64
2021/10/25 09:52:44;;;;;;;;;27.00;25.00;;;;;36.10;11.97;99724.13;7696613;22;97319;-65
2021/10/25 09:55:50;;;;;;;;;29.50;27.50;;;;;36.09;11.97;99728.94;7669186;22;97747;-65
2021/10/25 09:59:07;;;;;;;;;26.60;24.00;;;;;35.84;11.90;99722.81;7670372;22;97089;-65
2021/10/25 10:02:13;;;;;;;;;31.25;26.25;;;;;35.75;12.64;99725.03;7643372;22;97081;-65
2021/10/25 10:05:18;;;;;;;;;27.25;26.00;;;;;35.69;12.85;99720.91;7644180;22;99438;-64
2021/10/25 10:08:27;;;;;;;;;26.00;26.00;;;;;35.73;12.78;99718.97;7671098;22;97309;-64
2021/10/25 10:11:31;;;;;;;;;28.40;27.00;;;;;35.70;12.49;99721.72;7670957;22;97191;-65
2021/10/25 10:14:39;;;;;;;;;30.00;28.00;;;;;35.85;12.34;99706.81;7642281;22;99342;-65
2021/10/25 10:17:49;;;;;;;;;28.60;27.00;;;;;35.94;12.96;99716.63;7671084;22;97299;-65
2021/10/25 10:21:00;;;;;;;;;25.00;24.67;;;;;35.96;12.72;99697.41;7698066;22;97159;-64
2021/10/25 10:24:08;;;;;;;;;29.50;26.00;;;;;36.07;12.74;99705.25;7668770;22;96635;-65
2021/10/25 10:27:16;;;;;;;;;28.80;26.20;;;;;36.07;12.87;99705.25;7671791;22;97346;-64
2021/10/25 10:30:21;;;;;;;;;30.60;28.00;;;;;36.09;13.29;99700.03;7669124;22;96985;-64
2021/10/25 10:33:40;;;;;;;;;29.00;24.40;;;;;36.14;12.62;99697.78;7672717;22;96444;-64
2021/10/25 10:36:54;;;;;;;;;26.00;25.00;;;;;36.00;12.72;99691.88;7695098;22;97346;-65
2021/10/25 10:40:18;;;;;;;;;26.60;24.00;;;;;35.42;12.68;99688.25;7669057;22;97388;-65
2021/10/25 10:43:57;;;;;;;;;26.40;25.40;;;;;34.89;13.17;99693.44;7638338;22;97533;-65
2021/10/25 10:47:08;;;;;;;;;27.50;24.00;;;;;34.62;13.51;99683.97;7640051;22;96644;-64
2021/10/25 10:50:23;;;;;;;;;27.00;24.40;;;;;34.82;13.47;99679.25;7695160;22;97500;-65
2021/10/25 10:53:30;;;;;;;;;27.00;26.00;;;;;34.91;13.32;99677.06;7665997;22;97463;-65
2021/10/25 10:56:38;;;;;;;;;25.50;24.50;;;;;34.82;13.20;99670.03;7665841;22;96920;-65
2021/10/25 10:59:50;;;;;;;;;22.60;22.00;;;;;34.36;13.40;99662.09;7693149;22;96931;-64
2021/10/25 11:02:56;;;;;;;;;23.33;22.00;;;;;34.29;13.76;99658.31;7693584;22;97362;-65
2021/10/25 11:06:02;;;;;;;;;22.00;21.00;;;;;34.41;14.13;99649.81;7667222;22;96947;-65
2021/10/25 11:09:09;;;;;;;;;23.50;20.50;;;;;34.57;13.53;99636.63;7694703;22;97389;-65
2021/10/25 11:12:17;;;;;;;;;23.00;22.00;;;;;34.68;13.86;99646.13;7694982;22;97440;-64
2021/10/25 11:15:20;;;;;;;;;21.80;19.80;;;;;34.71;14.09;99636.97;7667692;22;97065;-66
2021/10/25 11:18:28;;;;;;;;;22.00;20.00;;;;;34.66;13.34;99640.03;7695229;22;96613;-65
2021/10/25 11:21:34;;;;;;;;;25.00;22.00;;;;;34.24;13.63;99634.22;7699359;22;96484;-66
2021/10/25 11:24:38;;;;;;;;;19.60;17.40;;;;;34.07;14.04;99628.94;7697394;22;96776;-65
2021/10/25 11:27:42;;;;;;;;;20.00;18.00;;;;;33.96;14.18;99636.25;7698162;22;96673;-66
2021/10/25 11:30:46;;;;;;;;;18.40;16.40;;;;;34.04;14.52;99626.84;7697377;22;97342;-66
2021/10/25 11:33:53;;;;;;;;;20.75;19.00;;;;;34.23;13.90;99634.56;7670519;22;99539;-64
2021/10/25 11:37:03;;;;;;;;;20.00;19.00;;;;;34.27;14.56;99636.28;7698504;22;96917;-66
2021/10/25 11:40:10;;;;;;;;;18.80;16.00;;;;;34.42;13.96;99622.63;7698971;22;96513;-66
2021/10/25 11:43:13;;;;;;;;;20.00;17.00;;;;;34.56;14.20;99615.38;7672229;22;98177;-66
2021/10/25 11:46:19;;;;;;;;;19.40;17.00;;;;;34.60;13.69;99616.28;7672058;22;96553;-66
2021/10/25 11:49:27;;;;;;;;;18.00;17.00;;;;;34.55;13.76;99610.16;7699303;22;97327;-66
2021/10/25 11:52:35;;;;;;;;;17.00;14.00;;;;;34.60;13.52;99610.69;7699444;22;96678;-66
2021/10/25 11:55:41;;;;;;;;;13.75;13.00;;;;;34.57;13.63;99611.41;7700067;22;96357;-64
2021/10/25 11:58:44;;;;;;;;;15.00;15.00;;;;;34.44;13.46;99587.50;7699131;22;96683;-64
2021/10/25 12:01:48;;;;;;;;;14.40;13.00;;;;;34.44;13.53;99598.72;7700061;22;96802;-64
2021/10/25 12:04:53;;;;;;;;;13.00;13.00;;;;;34.33;13.57;99592.84;7648475;22;96948;-65
2021/10/25 12:07:59;;;;;;;;;14.20;13.00;;;;;34.36;13.46;99592.09;7673649;22;98291;-65
2021/10/25 12:11:02;;;;;;;;;14.60;12.00;;;;;34.32;13.54;99588.41;7672758;22;99692;-65
2021/10/25 12:14:06;;;;;;;;;13.40;12.00;;;;;34.11;14.08;99598.25;7699886;22;96577;-65
2021/10/25 12:17:14;;;;;;;;;13.00;13.00;;;;;33.86;13.65;99590.03;7698982;22;97381;-64
2021/10/25 12:20:25;;;;;;;;;13.40;12.60;;;;;33.46;14.09;99586.50;7701662;22;96811;-65
2021/10/25 12:23:50;;;;;;;;;15.00;13.00;;;;;33.13;14.56;99580.31;7671427;22;97676;-65
2021/10/25 12:26:59;;;;;;;;;13.00;12.00;;;;;32.63;15.32;99570.41;7672270;22;97648;-66
2021/10/25 12:30:06;;;;;;;;;15.00;13.00;;;;;32.41;15.55;99582.06;7698688;22;96373;-65
2021/10/25 12:33:13;;;;;;;;;13.00;12.00;;;;;32.17;15.17;99578.13;7699965;22;97220;-64
2021/10/25 12:36:20;;;;;;;;;11.00;10.20;;;;;31.92;15.33;99558.88;7671453;22;97440;-65
2021/10/25 12:39:24;;;;;;;;;11.00;11.00;;;;;31.81;15.76;99562.13;7672364;22;97073;-65
2021/10/25 12:42:40;;;;;;;;;10.60;10.00;;;;;31.63;15.40;99562.66;7697931;22;97289;-65
2021/10/25 12:45:56;;;;;;;;;12.60;11.60;;;;;31.43;15.74;99550.38;7670833;22;96666;-65
2021/10/25 12:48:59;;;;;;;;;15.00;12.00;;;;;31.22;15.79;99558.81;7698727;22;96517;-65
2021/10/25 12:52:08;;;;;;;;;13.00;12.50;;;;;30.95;16.08;99548.19;7671039;22;97711;-66
2021/10/25 12:55:12;;;;;;;;;9.20;9.00;;;;;30.57;15.69;99542.78;7672224;22;97690;-65
2021/10/25 12:58:15;;;;;;;;;11.40;11.40;;;;;30.38;17.03;99542.38;7671889;22;96637;-64
2021/10/25 13:01:18;;;;;;;;;11.25;10.25;;;;;30.26;17.11;99533.94;7673077;22;97004;-65
2021/10/25 13:04:22;;;;;;;;;11.20;9.80;;;;;29.93;16.80;99540.16;7698520;22;96966;-65
2021/10/25 13:07:30;;;;;;;;;12.40;10.60;;;;;29.67;16.83;99533.84;7671353;22;97751;-65
2021/10/25 13:10:37;;;;;;;;;10.00;9.00;;;;;29.40;17.66;99532.31;7670874;22;96698;-65
2021/10/25 13:13:45;;;;;;;;;9.40;9.00;;;;;29.34;17.04;99525.28;7698092;22;97381;-64
2021/10/25 13:16:50;;;;;;;;;8.40;7.80;;;;;29.17;17.33;99517.78;7700439;22;96753;-65
2021/10/25 13:19:53;;;;;;;;;10.00;9.20;;;;;28.89;17.42;99512.91;7670801;22;97728;-65
2021/10/25 13:23:00;;;;;;;;;9.00;9.00;;;;;28.83;17.92;99515.84;7698465;22;97431;-65
2021/10/25 13:26:03;;;;;;;;;8.50;8.50;;;;;28.67;17.69;99522.19;7698830;22;96546;-65
2021/10/25 13:29:08;;;;;;;;;10.80;9.00;;;;;28.56;17.69;99516.13;7698446;22;97374;-65
2021/10/25 13:32:11;;;;;;;;;8.00;7.60;;;;;28.22;17.95;99485.59;7699425;22;96432;-65
2021/10/25 13:35:17;;;;;;;;;10.75;9.75;;;;;28.26;18.21;99512.34;7671617;22;96626;-64
2021/10/25 13:38:22;;;;;;;;;9.00;8.40;;;;;28.12;18.25;99503.34;7700571;22;96483;-64
2021/10/25 13:41:26;;;;;;;;;9.20;9.00;;;;;28.00;18.09;99497.59;7699664;22;97922;-64
2021/10/25 13:44:30;;;;;;;;;10.00;8.25;;;;;27.88;18.25;99494.59;7697611;22;96381;-64
2021/10/25 13:47:36;;;;;;;;;9.00;8.00;;;;;27.65;18.56;99485.56;7698820;22;96533;-65
2021/10/25 13:50:39;;;;;;;;;11.00;8.00;;;;;27.68;18.64;99490.47;7700889;22;96423;-64
2021/10/25 13:53:44;;;;;;;;;12.00;9.50;;;;;27.50;18.51;99483.22;7698694;22;96965;-65
2021/10/25 13:56:47;;;;;;;;;12.00;10.00;;;;;27.30;19.21;99476.25;7698600;22;96502;-64
2021/10/25 13:59:51;;;;;;;;;9.00;9.00;;;;;27.21;19.02;99474.56;7697822;22;97176;-64
2021/10/25 14:02:56;;;;;;;;;9.20;8.00;;;;;27.03;19.10;99474.44;7700059;22;97220;-65
2021/10/25 14:06:03;;;;;;;;;8.80;8.00;;;;;26.76;19.69;99470.97;7669961;22;96566;-65
2021/10/25 14:09:08;;;;;;;;;9.00;8.00;;;;;26.57;19.66;99462.84;7701616;22;96521;-64
2021/10/25 14:12:17;;;;;;;;;9.00;7.60;;;;;26.32;19.95;99466.19;7672436;22;97426;-64
2021/10/25 14:15:28;;;;;;;;;9.40;7.40;;;;;26.10;20.03;99461.41;7697061;22;96483;-65
2021/10/25 14:18:33;;;;;;;;;8.00;8.00;;;;;25.79;20.51;99453.78;7698157;22;96949;-65
2021/10/25 14:21:37;;;;;;;;;9.00;8.25;;;;;25.56;20.84;99451.22;7700696;22;96618;-64
2021/10/25 14:24:42;;;;;;;;;8.00;7.00;;;;;25.32;20.99;99449.44;7698047;22;97424;-64
2021/10/25 14:27:45;;;;;;;;;8.00;8.00;;;;;25.05;21.35;99454.09;7700024;22;97394;-65
2021/10/25 14:30:49;;;;;;;;;8.00;7.00;;;;;24.91;21.24;99432.00;7698048;22;97039;-64
2021/10/25 14:33:54;;;;;;;;;8.60;7.00;;;;;24.79;21.46;99424.16;7697292;22;97022;-65
2021/10/25 14:37:05;;;;;;;;;7.80;6.80;;;;;24.69;21.52;99427.06;7697732;22;97420;-65
2021/10/25 14:40:12;;;;;;;;;9.00;8.00;;;;;24.52;21.87;99418.56;7697276;22;97142;-64
2021/10/25 14:43:19;;;;;;;;;11.00;8.20;;;;;24.38;22.02;99418.50;7674103;22;97425;-64
2021/10/25 14:46:39;;;;;;;;;9.00;8.00;;;;;24.25;21.99;99421.97;7644485;22;97554;-65
2021/10/25 14:56:22;;;;;;;;;7.00;6.40;;;;;23.44;22.85;99412.00;7698108;22;96712;-64
2021/10/25 14:59:25;;;;;;;;;8.00;7.00;;;;;23.20;23.19;99406.50;7698033;22;97455;-64
2021/10/25 15:02:29;;;;;;;;;8.60;7.60;;;;;22.87;23.72;99407.41;7671492;22;98435;-65
2021/10/25 15:05:33;;;;;;;;;8.00;8.00;;;;;22.62;23.78;99404.84;7671873;22;96803;-65
2021/10/25 15:08:36;;;;;;;;;7.00;7.00;;;;;22.34;24.30;99398.16;7672162;22;98529;-68
2021/10/25 15:11:41;;;;;;;;;10.00;8.00;;;;;22.01;24.95;99397.84;7698957;22;96883;-64
2021/10/25 15:14:45;;;;;;;;;8.00;7.00;;;;;21.67;25.01;99394.16;7670172;22;98275;-64
2021/10/25 15:17:49;;;;;;;;;9.00;8.00;;;;;21.50;26.31;99400.00;7670418;22;97362;-63
2021/10/25 15:20:52;;;;;;;;;10.00;9.00;;;;;21.14;26.56;99393.81;7698545;22;97448;-64
2021/10/25 15:23:56;;;;;;;;;11.00;10.00;;;;;20.77;27.17;99402.34;7669778;22;97661;-63
2021/10/25 15:27:01;;;;;;;;;12.00;10.00;;;;;20.50;27.88;99396.34;7698000;22;96520;-64
2021/10/25 15:30:06;;;;;;;;;11.00;10.00;;;;;20.20;28.06;99393.56;7698303;22;97019;-64
2021/10/25 15:33:12;;;;;;;;;12.00;9.00;;;;;20.04;27.88;99384.50;7672090;22;97048;-64
2021/10/25 15:36:15;;;;;;;;;11.40;10.40;;;;;19.61;28.17;99355.66;7697779;22;97929;-64
2021/10/25 15:39:19;;;;;;;;;11.20;10.20;;;;;19.62;29.14;99398.34;7697109;22;97162;-64
2021/10/25 15:42:25;;;;;;;;;13.00;11.40;;;;;19.28;29.87;99377.94;7696502;22;97875;-64
2021/10/25 15:45:28;;;;;;;;;9.00;8.25;;;;;19.05;30.13;99387.41;7668502;22;96841;-64
2021/10/25 15:48:32;;;;;;;;;12.75;11.75;;;;;18.76;30.73;99381.47;7697146;22;96661;-63
2021/10/25 15:51:37;;;;;;;;;10.00;9.00;;;;;18.52;30.98;99370.06;7696341;22;97361;-63
2021/10/25 15:54:41;;;;;;;;;9.75;9.00;;;;;18.31;31.65;99381.09;7697791;22;96548;-63
2021/10/25 15:57:46;;;;;;;;;10.50;9.50;;;;;18.11;31.85;99389.91;7696796;22;96296;-63
2021/10/25 16:00:49;;;;;;;;;11.40;9.40;;;;;17.90;32.29;99388.03;7697702;22;96417;-64
2021/10/25 16:03:53;;;;;;;;;10.50;10.00;;;;;17.67;32.70;99381.81;7695662;22;96361;-64
2021/10/25 16:06:56;;;;;;;;;10.40;9.40;;;;;17.39;33.32;99365.66;7696163;22;97060;-63
2021/10/25 16:10:00;;;;;;;;;13.50;10.00;;;;;17.29;33.78;99370.97;7698194;22;97049;-63
2021/10/25 16:13:04;;;;;;;;;10.40;10.00;;;;;17.10;33.78;99370.47;7670442;22;96398;-63